createdAt,value
2023-05-14T00:02:13.047Z,12.48
2023-05-14T00:04:42.752Z,11.65
2023-05-14T00:07:12.211Z,11.68
2023-05-14T00:09:41.668Z,11.07
2023-05-14T00:12:11.541Z,11.15
2023-05-14T00:14:41.008Z,12.25
2023-05-14T00:17:13.068Z,10.95
2023-05-14T00:19:42.989Z,10.75
2023-05-14T00:22:12.820Z,11.35
2023-05-14T00:24:42.320Z,15.27
2023-05-14T00:27:11.801Z,11.15
2023-05-14T00:29:42.710Z,11.73
2023-05-14T00:32:14.786Z,13.00
2023-05-14T00:34:44.310Z,10.88
2023-05-14T00:37:13.761Z,12.30
2023-05-14T00:39:43.264Z,12.00
2023-05-14T00:42:12.715Z,12.57
2023-05-14T00:44:42.273Z,13.13
2023-05-14T00:47:14.592Z,10.90
2023-05-14T00:49:45.142Z,12.85
2023-05-14T00:52:14.832Z,12.43
2023-05-14T00:54:44.748Z,11.90
2023-05-14T00:57:14.456Z,13.70
2023-05-14T00:59:43.965Z,12.30
2023-05-14T01:02:16.390Z,12.02
2023-05-14T01:04:46.032Z,12.07
2023-05-14T01:07:23.513Z,11.60
2023-05-14T01:09:57.651Z,13.38
2023-05-14T01:12:36.290Z,12.65
2023-05-14T01:15:12.071Z,14.30
2023-05-14T01:17:49.006Z,13.73
2023-05-14T01:20:19.109Z,12.75
2023-05-14T01:22:57.561Z,12.67
2023-05-14T01:25:27.163Z,12.57
2023-05-14T01:28:03.883Z,11.87
2023-05-14T01:30:36.930Z,12.25
2023-05-14T01:33:09.673Z,14.93
2023-05-14T01:38:15.119Z,13.03
2023-05-14T01:40:45.144Z,12.73
2023-05-14T01:43:14.748Z,12.83
2023-05-14T01:45:44.503Z,12.70
2023-05-14T01:48:13.989Z,10.97
2023-05-14T01:50:43.742Z,12.60
2023-05-14T01:53:15.856Z,12.35
2023-05-14T01:55:45.380Z,15.80
2023-05-14T01:58:14.829Z,11.32
2023-05-14T02:00:44.291Z,12.30
2023-05-14T02:03:14.093Z,11.90
2023-05-14T02:05:45.297Z,12.63
2023-05-14T02:08:17.545Z,9.83
2023-05-14T02:10:47.010Z,12.02
2023-05-14T02:16:08.572Z,12.27
2023-05-14T02:18:38.131Z,11.17
2023-05-14T02:21:07.780Z,10.67
2023-05-14T02:23:42.052Z,10.40
2023-05-14T02:26:12.488Z,10.83
2023-05-14T02:28:41.971Z,12.37
2023-05-14T02:31:11.499Z,11.30
2023-05-14T02:33:41.025Z,14.10
2023-05-14T02:36:10.810Z,11.03
2023-05-14T02:38:43.156Z,10.83
2023-05-14T02:41:12.613Z,11.73
2023-05-14T02:43:42.057Z,11.63
2023-05-14T02:46:11.605Z,11.60
2023-05-14T02:48:41.136Z,11.70
2023-05-14T02:51:10.643Z,11.50
2023-05-14T02:53:42.776Z,11.70
2023-05-14T02:56:12.288Z,12.52
2023-05-14T02:58:41.698Z,11.77
2023-05-14T03:01:11.524Z,11.60
2023-05-14T03:03:41.742Z,11.27
2023-05-14T03:06:12.187Z,11.03
2023-05-14T03:08:44.433Z,12.70
2023-05-14T03:11:13.867Z,11.50
2023-05-14T03:13:43.407Z,12.73
2023-05-14T03:16:13.605Z,12.97
2023-05-14T03:18:43.104Z,12.97
2023-05-14T03:21:12.669Z,11.60
2023-05-14T03:23:44.782Z,11.87
2023-05-14T03:26:14.288Z,12.70
2023-05-14T03:28:43.903Z,11.63
2023-05-14T03:31:13.459Z,14.67
2023-05-14T03:33:43.073Z,11.60
2023-05-14T03:36:12.597Z,12.30
2023-05-14T03:38:45.199Z,12.10
2023-05-14T03:41:14.680Z,11.77
2023-05-14T03:43:44.160Z,10.93
2023-05-14T03:46:13.640Z,10.60
2023-05-14T03:48:43.275Z,11.83
2023-05-14T03:51:12.809Z,12.00
2023-05-14T03:53:44.940Z,12.80
2023-05-14T03:56:16.186Z,10.87
2023-05-14T03:58:45.726Z,11.20
2023-05-14T04:01:15.170Z,10.83
2023-05-14T04:03:44.813Z,11.83
2023-05-14T04:06:15.612Z,11.40
2023-05-14T04:08:47.650Z,11.47
2023-05-14T04:11:17.152Z,10.40
2023-05-14T04:13:46.660Z,12.57
2023-05-14T04:16:16.194Z,11.73
2023-05-14T04:18:46.103Z,11.77
2023-05-14T04:21:15.716Z,11.43
2023-05-14T04:23:47.780Z,11.30
2023-05-14T04:26:17.255Z,12.52
2023-05-14T04:28:46.741Z,10.80
2023-05-14T04:31:16.412Z,11.10
2023-05-14T04:33:45.908Z,10.73
2023-05-14T04:36:16.166Z,11.23
2023-05-14T04:38:48.346Z,11.73
2023-05-14T04:41:17.784Z,11.75
2023-05-14T04:43:47.230Z,11.03
2023-05-14T04:46:16.752Z,10.20
2023-05-14T04:48:46.289Z,11.30
2023-05-14T04:51:15.735Z,11.17
2023-05-14T04:53:47.777Z,11.43
2023-05-14T04:56:17.223Z,11.45
2023-05-14T04:58:46.724Z,10.17
2023-05-14T05:01:16.346Z,10.37
2023-05-14T05:03:45.920Z,11.37
2023-05-14T05:06:15.510Z,9.77
2023-05-14T05:08:44.955Z,10.43
2023-05-14T05:11:17.006Z,11.57
2023-05-14T05:13:46.682Z,12.38
2023-05-14T05:16:16.223Z,10.10
2023-05-14T05:18:45.829Z,11.20
2023-05-14T05:21:15.511Z,11.50
2023-05-14T05:23:44.980Z,13.13
2023-05-14T05:26:17.028Z,13.77
2023-05-14T05:28:46.481Z,11.50
2023-05-14T05:31:19.564Z,13.07
2023-05-14T05:33:49.385Z,11.90
2023-05-14T05:36:18.813Z,10.43
2023-05-14T05:38:48.346Z,11.07
2023-05-14T05:41:20.656Z,12.17
2023-05-14T05:43:50.116Z,12.65
2023-05-14T05:46:19.651Z,11.87
2023-05-14T05:48:49.133Z,11.90
2023-05-14T05:51:18.658Z,11.10
2023-05-14T05:53:48.145Z,10.53
2023-05-14T05:56:20.248Z,11.70
2023-05-14T05:58:49.795Z,11.20
2023-05-14T06:01:19.287Z,10.30
2023-05-14T06:03:48.924Z,11.70
2023-05-14T06:06:18.536Z,10.40
2023-05-14T06:08:47.998Z,10.43
2023-05-14T06:11:20.036Z,12.03
2023-05-14T06:13:49.523Z,12.25
2023-05-14T06:16:19.017Z,10.33
2023-05-14T06:18:48.526Z,11.77
2023-05-14T06:21:18.066Z,12.30
2023-05-14T06:23:47.734Z,10.73
2023-05-14T06:26:19.814Z,11.47
2023-05-14T06:28:49.369Z,10.98
2023-05-14T06:31:18.868Z,10.30
2023-05-14T06:33:48.491Z,11.77
2023-05-14T06:36:17.932Z,11.00
2023-05-14T06:38:47.407Z,11.33
2023-05-14T06:41:16.922Z,10.83
2023-05-14T06:43:48.979Z,10.77
2023-05-14T06:46:18.486Z,11.57
2023-05-14T06:48:48.018Z,11.35
2023-05-14T06:51:17.599Z,8.35
2023-05-14T06:53:47.804Z,11.70
2023-05-14T06:56:17.477Z,10.88
2023-05-14T06:58:49.547Z,10.02
2023-05-14T07:01:19.324Z,11.48
2023-05-14T07:03:48.817Z,10.40
2023-05-14T07:06:18.314Z,9.57
2023-05-14T07:08:48.672Z,9.85
2023-05-14T07:11:18.318Z,11.80
2023-05-14T07:13:50.518Z,10.90
2023-05-14T07:16:20.106Z,10.52
2023-05-14T07:18:49.627Z,11.23
2023-05-14T07:21:19.138Z,9.98
2023-05-14T07:23:48.615Z,10.45
2023-05-14T07:26:18.157Z,10.40
2023-05-14T07:28:50.168Z,11.55
2023-05-14T07:31:19.663Z,8.02
2023-05-14T07:33:49.185Z,9.38
2023-05-14T07:36:18.759Z,11.00
2023-05-14T07:38:48.331Z,9.65
2023-05-14T07:41:17.859Z,9.45
2023-05-14T07:43:50.012Z,11.38
2023-05-14T07:46:19.433Z,10.50
2023-05-14T07:48:48.922Z,10.90
2023-05-14T07:51:18.437Z,9.18
2023-05-14T07:53:47.956Z,9.32
2023-05-14T07:56:17.401Z,10.50
2023-05-14T07:58:47.039Z,11.65
2023-05-14T08:01:19.726Z,11.00
2023-05-14T08:06:21.099Z,11.15
2023-05-14T08:08:50.604Z,11.05
2023-05-14T08:11:20.051Z,10.93
2023-05-14T08:13:49.576Z,9.93
2023-05-14T08:16:21.746Z,10.52
2023-05-14T08:18:51.373Z,10.02
2023-05-14T08:21:20.927Z,10.57
2023-05-14T08:23:51.068Z,8.90
2023-05-14T08:26:21.743Z,10.25
2023-05-14T08:28:51.246Z,9.77
2023-05-14T08:31:23.658Z,10.55
2023-05-14T08:36:22.692Z,11.63
2023-05-14T08:38:52.124Z,9.40
2023-05-14T08:41:21.945Z,9.27
2023-05-14T08:44:01.363Z,9.85
2023-05-14T08:46:34.697Z,8.20
2023-05-14T08:49:11.415Z,9.85
2023-05-14T08:51:41.483Z,11.68
2023-05-14T08:54:10.935Z,9.73
2023-05-14T08:56:43.326Z,10.15
2023-05-14T08:59:13.054Z,9.23
2023-05-14T09:01:49.277Z,8.75
2023-05-14T09:04:23.356Z,10.23
2023-05-14T09:06:55.223Z,10.30
2023-05-14T09:09:25.836Z,7.45
2023-05-14T09:11:56.306Z,8.30
2023-05-14T09:14:26.452Z,9.52
2023-05-14T09:16:58.559Z,9.25
2023-05-14T09:19:28.879Z,8.82
2023-05-14T09:22:00.788Z,8.82
2023-05-14T09:24:31.881Z,9.95
2023-05-14T09:27:01.576Z,9.02
2023-05-14T09:29:32.520Z,9.85
2023-05-14T09:32:05.672Z,9.82
2023-05-14T09:34:38.157Z,9.15
2023-05-14T09:37:08.880Z,8.30
2023-05-14T09:39:40.071Z,11.35
2023-05-14T09:42:09.893Z,8.20
2023-05-14T09:44:39.336Z,8.90
2023-05-14T09:47:11.497Z,12.27
2023-05-14T09:49:40.971Z,8.32
2023-05-14T09:52:10.422Z,9.27
2023-05-14T09:54:40.351Z,9.82
2023-05-14T09:57:10.037Z,10.57
2023-05-14T09:59:39.510Z,10.23
2023-05-14T10:02:18.987Z,8.10
2023-05-14T10:04:49.450Z,10.38
2023-05-14T10:07:22.164Z,7.97
2023-05-14T10:12:24.908Z,8.50
2023-05-14T10:14:59.322Z,9.23
2023-05-14T10:17:34.753Z,8.82
2023-05-14T10:20:08.399Z,10.32
2023-05-14T10:22:38.073Z,9.00
2023-05-14T10:25:08.840Z,8.27
2023-05-14T10:27:38.780Z,10.00
2023-05-14T10:30:13.085Z,8.93
2023-05-14T10:32:45.237Z,9.40
2023-05-14T10:35:25.526Z,9.98
2023-05-14T10:37:55.059Z,9.70
2023-05-14T10:40:27.179Z,9.60
2023-05-14T10:43:01.437Z,8.40
2023-05-14T10:45:30.892Z,9.55
2023-05-14T10:48:03.179Z,10.18
2023-05-14T10:50:32.928Z,10.85
2023-05-14T10:53:02.994Z,10.73
2023-05-14T10:55:33.237Z,8.60
2023-05-14T10:58:03.196Z,9.50
2023-05-14T11:00:36.022Z,10.60
2023-05-14T11:03:10.047Z,8.82
2023-05-14T11:05:42.358Z,8.43
2023-05-14T11:08:11.999Z,8.65
2023-05-14T11:10:42.392Z,10.55
2023-05-14T11:13:13.121Z,10.52
2023-05-14T11:15:47.231Z,10.30
2023-05-14T11:18:29.353Z,9.85
2023-05-14T11:21:01.652Z,10.70
2023-05-14T11:23:31.929Z,9.32
2023-05-14T11:26:01.762Z,9.43
2023-05-14T11:28:31.545Z,9.55
2023-05-14T11:31:01.145Z,10.52
2023-05-14T11:33:33.277Z,10.48
2023-05-14T11:36:02.746Z,9.35
2023-05-14T11:38:32.193Z,10.25
2023-05-14T11:41:04.476Z,10.80
2023-05-14T11:43:34.068Z,9.57
2023-05-14T11:46:03.578Z,9.23
2023-05-14T11:48:35.690Z,9.02
2023-05-14T11:51:05.102Z,10.00
2023-05-14T11:53:34.837Z,9.25
2023-05-14T11:56:05.666Z,10.45
2023-05-14T11:58:36.848Z,10.20
2023-05-14T12:01:06.500Z,9.70
2023-05-14T12:03:38.848Z,9.77
2023-05-14T12:06:10.057Z,9.48
2023-05-14T12:08:40.065Z,10.32
2023-05-14T12:11:09.544Z,9.43
2023-05-14T12:13:39.481Z,10.90
2023-05-14T12:16:09.364Z,9.63
2023-05-14T12:18:41.556Z,9.35
2023-05-14T12:21:12.220Z,10.88
2023-05-14T12:23:42.065Z,11.27
2023-05-14T12:26:12.113Z,9.05
2023-05-14T12:28:43.785Z,9.57
2023-05-14T12:31:13.416Z,9.95
2023-05-14T12:33:46.042Z,11.93
2023-05-14T12:38:52.146Z,8.95
2023-05-14T12:41:21.868Z,10.43
2023-05-14T12:43:51.884Z,8.65
2023-05-14T12:46:21.543Z,9.50
2023-05-14T12:48:53.708Z,8.82
2023-05-14T12:51:23.265Z,7.68
2023-05-14T12:53:54.322Z,7.05
2023-05-14T12:56:28.331Z,8.95
2023-05-14T12:58:58.774Z,10.05
2023-05-14T13:01:28.292Z,7.53
2023-05-14T13:04:00.356Z,8.32
2023-05-14T13:06:32.791Z,7.65
2023-05-14T13:09:02.627Z,7.70
2023-05-14T13:11:32.374Z,8.68
2023-05-14T13:14:02.396Z,7.80
2023-05-14T13:16:32.297Z,9.45
2023-05-14T13:19:04.376Z,8.40
2023-05-14T13:21:34.085Z,8.93
2023-05-14T13:24:03.528Z,8.10
2023-05-14T13:26:33.024Z,9.57
2023-05-14T13:29:02.442Z,9.00
2023-05-14T13:31:32.039Z,7.47
2023-05-14T13:34:04.375Z,6.57
2023-05-14T13:36:34.020Z,7.80
2023-05-14T13:39:04.562Z,7.63
2023-05-14T13:41:35.692Z,10.77
2023-05-14T13:44:05.138Z,9.43
2023-05-14T13:46:35.021Z,9.48
2023-05-14T13:49:07.140Z,8.88
2023-05-14T13:51:36.539Z,7.65
2023-05-14T13:54:06.236Z,7.57
2023-05-14T13:56:35.721Z,9.88
2023-05-14T13:59:05.184Z,7.72
2023-05-14T14:01:34.740Z,7.22
2023-05-14T14:04:06.888Z,7.22
2023-05-14T14:06:36.351Z,10.90
2023-05-14T14:09:06.160Z,7.93
2023-05-14T14:11:35.722Z,8.18
2023-05-14T14:14:07.213Z,9.23
2023-05-14T14:16:36.818Z,9.70
2023-05-14T14:19:09.383Z,8.25
2023-05-14T14:24:09.967Z,8.30
2023-05-14T14:26:39.418Z,9.25
2023-05-14T14:29:08.946Z,9.18
2023-05-14T14:31:39.541Z,8.70
2023-05-14T14:34:15.804Z,9.13
2023-05-14T14:36:45.468Z,8.73
2023-05-14T14:39:14.943Z,9.10
2023-05-14T14:41:44.532Z,8.02
2023-05-14T14:44:14.070Z,7.30
2023-05-14T14:46:44.201Z,6.95
2023-05-14T14:49:16.244Z,6.03
2023-05-14T14:51:47.052Z,8.25
2023-05-14T14:54:16.483Z,7.78
2023-05-14T14:56:46.091Z,5.97
2023-05-14T14:59:15.556Z,7.03
2023-05-14T15:01:45.140Z,7.07
2023-05-14T15:04:17.229Z,6.97
2023-05-14T15:06:46.720Z,7.25
2023-05-14T15:09:16.315Z,6.43
2023-05-14T15:11:45.800Z,7.10
2023-05-14T15:14:15.348Z,4.25
2023-05-14T15:16:44.991Z,6.88
2023-05-14T15:19:17.320Z,6.00
2023-05-14T15:21:47.006Z,5.53
2023-05-14T15:24:16.453Z,6.70
2023-05-14T15:26:45.981Z,6.60
2023-05-14T15:29:15.545Z,5.45
2023-05-14T15:31:45.203Z,7.03
2023-05-14T15:34:17.327Z,7.40
2023-05-14T15:36:46.782Z,7.53
2023-05-14T15:39:16.260Z,8.70
2023-05-14T15:41:45.761Z,7.68
2023-05-14T15:44:15.263Z,8.68
2023-05-14T15:46:44.886Z,9.90
2023-05-14T15:49:17.036Z,7.90
2023-05-14T15:51:46.502Z,9.20
2023-05-14T15:54:16.054Z,8.27
2023-05-14T15:56:46.543Z,8.90
2023-05-14T15:59:17.725Z,8.15
2023-05-14T16:01:47.411Z,8.02
2023-05-14T16:04:19.456Z,8.30
2023-05-14T16:06:48.900Z,7.82
2023-05-14T16:09:18.479Z,6.43
2023-05-14T16:11:48.076Z,9.80
2023-05-14T16:14:18.609Z,8.15
2023-05-14T16:16:48.302Z,10.50
2023-05-14T16:19:20.614Z,8.30
2023-05-14T16:21:50.185Z,8.05
2023-05-14T16:24:20.309Z,10.20
2023-05-14T16:26:50.093Z,7.00
2023-05-14T16:29:19.653Z,8.57
2023-05-14T16:31:49.225Z,7.85
2023-05-14T16:34:21.300Z,9.35
2023-05-14T16:36:51.097Z,7.70
2023-05-14T16:39:20.528Z,8.43
2023-05-14T16:41:50.010Z,9.07
2023-05-14T16:44:19.533Z,8.05
2023-05-14T16:46:49.026Z,8.27
2023-05-14T16:49:22.555Z,9.30
2023-05-14T16:51:52.077Z,8.45
2023-05-14T16:54:21.781Z,8.93
2023-05-14T16:56:51.587Z,6.78
2023-05-14T16:59:21.098Z,9.02
2023-05-14T17:01:50.862Z,7.70
2023-05-14T17:04:25.060Z,7.25
2023-05-14T17:06:54.673Z,8.27
2023-05-14T17:09:24.149Z,7.45
2023-05-14T17:11:53.639Z,8.23
2023-05-14T17:14:23.139Z,7.80
2023-05-14T17:16:52.665Z,10.25
2023-05-14T17:19:24.840Z,12.10
2023-05-14T17:21:54.230Z,7.43
2023-05-14T17:24:23.631Z,8.13
2023-05-14T17:26:53.151Z,7.72
2023-05-14T17:29:23.076Z,8.52
2023-05-14T17:31:52.748Z,8.73
2023-05-14T17:34:24.900Z,8.90
2023-05-14T17:36:54.543Z,9.48
2023-05-14T17:39:24.117Z,8.77
2023-05-14T17:41:53.551Z,10.25
2023-05-14T17:44:23.007Z,10.77
2023-05-14T17:46:52.564Z,10.23
2023-05-14T17:49:24.730Z,8.73
2023-05-14T17:51:54.375Z,9.35
2023-05-14T17:54:23.817Z,9.60
2023-05-14T17:56:53.626Z,8.40
2023-05-14T17:59:24.415Z,7.90
2023-05-14T18:01:54.048Z,11.65
2023-05-14T18:04:26.091Z,7.78
2023-05-14T18:06:55.629Z,11.13
2023-05-14T18:09:25.133Z,8.40
2023-05-14T18:11:56.770Z,9.05
2023-05-14T18:14:26.533Z,10.65
2023-05-14T18:16:56.610Z,9.30
2023-05-14T18:19:28.698Z,9.68
2023-05-14T18:21:58.196Z,9.10
2023-05-14T18:24:27.969Z,9.85
2023-05-14T18:26:57.549Z,10.65
2023-05-14T18:29:27.112Z,10.07
2023-05-14T18:31:56.527Z,9.43
2023-05-14T18:34:28.595Z,12.40
2023-05-14T18:36:58.584Z,10.40
2023-05-14T18:39:28.251Z,11.32
2023-05-14T18:41:57.845Z,10.80
2023-05-14T18:44:27.285Z,10.25
2023-05-14T18:46:59.451Z,10.23
2023-05-14T18:49:31.485Z,11.38
2023-05-14T18:52:01.024Z,10.52
2023-05-14T18:54:30.630Z,10.82
2023-05-14T18:57:00.163Z,11.02
2023-05-14T18:59:29.636Z,11.55
2023-05-14T19:01:59.156Z,10.98
2023-05-14T19:04:33.300Z,11.68
2023-05-14T19:07:03.130Z,11.93
2023-05-14T19:09:32.614Z,11.50
2023-05-14T19:12:02.039Z,12.23
2023-05-14T19:14:31.580Z,10.00
2023-05-14T19:17:06.108Z,12.05
2023-05-14T19:19:39.448Z,11.25
2023-05-14T19:22:09.565Z,11.95
2023-05-14T19:24:40.238Z,11.05
2023-05-14T19:27:10.169Z,11.98
2023-05-14T19:29:39.724Z,12.73
2023-05-14T19:32:10.353Z,11.52
2023-05-14T19:34:42.392Z,11.35
2023-05-14T19:37:11.892Z,10.48
2023-05-14T19:39:41.362Z,10.13
2023-05-14T19:42:11.011Z,10.43
2023-05-14T19:44:40.471Z,10.90
2023-05-14T19:47:10.467Z,10.38
2023-05-14T19:49:42.652Z,10.32
2023-05-14T19:52:12.217Z,10.05
2023-05-14T19:54:41.668Z,11.38
2023-05-14T19:57:12.068Z,12.40
2023-05-14T19:59:41.991Z,11.90
2023-05-14T20:02:12.590Z,12.02
2023-05-14T20:04:46.216Z,11.73
2023-05-14T20:07:16.571Z,12.15
2023-05-14T20:09:46.763Z,11.73
2023-05-14T20:12:16.913Z,12.73
2023-05-14T20:14:46.421Z,13.13
2023-05-14T20:17:16.404Z,11.50
2023-05-14T20:19:48.612Z,12.52
2023-05-14T20:22:18.297Z,13.32
2023-05-14T20:24:47.749Z,11.80
2023-05-14T20:27:17.224Z,12.43
2023-05-14T20:29:46.861Z,12.63
2023-05-14T20:32:17.376Z,10.90
2023-05-14T20:34:49.629Z,11.90
2023-05-14T20:37:19.904Z,12.13
2023-05-14T20:39:49.728Z,11.82
2023-05-14T20:42:19.276Z,10.23
2023-05-14T20:44:48.846Z,11.45
2023-05-14T20:47:24.407Z,13.52
2023-05-14T20:49:56.524Z,14.07
2023-05-14T20:52:26.104Z,12.07
2023-05-14T20:54:55.813Z,12.38
2023-05-14T20:57:25.782Z,11.68
2023-05-14T20:59:55.251Z,12.68
2023-05-14T21:02:24.856Z,11.73
2023-05-14T21:04:57.224Z,10.55
2023-05-14T21:07:28.292Z,12.77
2023-05-14T21:09:58.413Z,11.45
2023-05-14T21:12:27.937Z,11.07
2023-05-14T21:14:57.401Z,11.48
2023-05-14T21:17:26.949Z,11.45
2023-05-14T21:19:59.147Z,11.48
2023-05-14T21:22:29.801Z,13.35
2023-05-14T21:24:59.345Z,10.77
2023-05-14T21:27:29.129Z,11.50
2023-05-14T21:29:58.574Z,11.60
2023-05-14T21:32:28.062Z,13.35
2023-05-14T21:35:00.247Z,11.27
2023-05-14T21:37:29.904Z,13.20
2023-05-14T21:39:59.413Z,11.38
2023-05-14T21:42:28.889Z,11.45
2023-05-14T21:44:58.409Z,14.65
2023-05-14T21:47:28.043Z,13.18
2023-05-14T21:50:00.338Z,12.18
2023-05-14T21:52:29.805Z,11.85
2023-05-14T21:54:59.307Z,12.00
2023-05-14T21:57:31.879Z,11.77
2023-05-14T22:00:03.721Z,13.52
2023-05-14T22:02:34.142Z,11.85
2023-05-14T22:05:06.621Z,11.45
2023-05-14T22:07:36.185Z,12.98
2023-05-14T22:10:05.798Z,10.77
2023-05-14T22:12:35.309Z,12.20
2023-05-14T22:15:05.253Z,11.98
2023-05-14T22:17:34.986Z,12.90
2023-05-14T22:20:10.250Z,11.70
2023-05-14T22:22:39.808Z,13.65
2023-05-14T22:25:10.190Z,13.73
2023-05-14T22:27:39.742Z,11.75
2023-05-14T22:30:11.131Z,10.60
2023-05-14T22:32:40.773Z,12.27
2023-05-14T22:35:13.119Z,13.95
2023-05-14T22:37:42.634Z,11.07
2023-05-14T22:40:13.690Z,13.25
2023-05-14T22:42:43.201Z,13.43
2023-05-14T22:45:13.378Z,12.48
2023-05-14T22:47:43.431Z,12.75
2023-05-14T22:50:15.695Z,12.25
2023-05-14T22:52:45.186Z,12.55
2023-05-14T22:55:14.691Z,13.90
2023-05-14T22:57:44.219Z,12.75
2023-05-14T23:00:15.629Z,13.13
2023-05-14T23:02:45.256Z,12.82
2023-05-14T23:05:17.531Z,12.40
2023-05-14T23:07:47.156Z,14.90
2023-05-14T23:10:16.632Z,12.98
2023-05-14T23:12:46.102Z,11.50
2023-05-14T23:15:15.560Z,13.63
2023-05-14T23:17:45.279Z,12.93
2023-05-14T23:20:17.469Z,11.73
2023-05-14T23:22:47.008Z,13.18
2023-05-14T23:25:16.465Z,12.50
2023-05-14T23:27:46.042Z,13.43
2023-05-14T23:30:16.328Z,13.00
2023-05-14T23:32:45.819Z,15.45
2023-05-14T23:35:18.138Z,12.23
2023-05-14T23:37:49.633Z,14.32
2023-05-14T23:40:19.690Z,17.13
2023-05-14T23:42:49.589Z,14.80
2023-05-14T23:45:19.172Z,14.23
2023-05-14T23:47:48.757Z,15.10
2023-05-14T23:50:21.069Z,14.38
2023-05-14T23:52:50.615Z,14.55
2023-05-14T23:55:20.183Z,14.80
2023-05-14T23:57:50.089Z,13.23
